Colton, WA

6:05 AM PDT on September 18, 2014 (GMT -0700)
Town of Colton | Change Station
CLOSE
Current Station
Personal Weather Station
Location: Colton, WA
Elevation: 2579 ft
Nearby Weather Stations

Elev 2579 ft 46.57 °N, 117.12 °W | Updated 1 minute ago

Partly Cloudy
Partly Cloudy
49.8 °F
Feels Like 50 °F
N
0.0
Wind Variable Wind from ESE
Gusts 4.0 mph

Today
High -- | Low -- °F
--% Chance of Precip.
Yesterday
High -- | Low -- °F
Precip. -- in
6:30 AM 6:53 PM
Waning Crescent, 27% visible
Pressure 29.70 in
Visibility 8.0 miles
Clouds Clear
Windchill 50 °F
Dew Point 36 °F
Humidity 59%
Rainfall 0.00 in
Snow Depth 1 in , 1 in , 0 in
UV 0 out of 12
Pollen 7.40 out of 12
Air Quality Not available.
Flu Activity Not available.
METAR KPUW 181253Z AUTO 00000KT 8SM CLR 11/02 A2974 RMK AO2 SLP056 T01110017

More Conditions Fewer Conditions

Pressure 29.70 in
Visibility 8.0 miles
Clouds Clear
Windchill 50 °F
Dew Point 36 °F
Humidity 59%
Rainfall 0.00 in
Snow Depth 1 in , 1 in , 0 in
UV 0 out of 12
Pollen 7.40 out of 12
Air Quality Not available.
Flu Activity Not available.
METAR KPUW 181253Z AUTO 00000KT 8SM CLR 11/02 A2974 RMK AO2 SLP056 T01110017

More Conditions Fewer Conditions

10-Day Weather Forecast

Almanac

Astronomy

Sep. 18, 2014 Rise Set
Actual Time 6:30 AM PDT 6:53 PM PDT
Civil Twilight 6:00 AM PDT 7:24 PM PDT
Nautical Twilight 5:24 AM PDT 7:59 PM PDT
Astronomical Twilight 4:47 AM PDT 8:36 PM PDT
Moon 1:12 AM PDT 4:00 PM PDT
Length of Visible Light 13h 24m
Length of Day
12h 23m
Tomorrow will be 3m 17s shorter.
Waning Crescent, 27% of the Moon is Illuminated
Today
Waning Crescent
Sep 24
New
Oct 1
First Quarter
Oct 8
Full
Oct 15
Last Quarter

Today's Extremes

State Highs State Lows

Community

WunderPhotos

Upload Photos

1,754,334 photos uploaded!

Nearby

Snow Depth

Station Depth Elevation
Surprise Lakes 1 in 4250 ft
Moses Mountain 1 in 5300 ft
Trough 0 in 5300 ft
Mount Gardner 0 in 3000 ft
Sentinel Butte 2 in 4920 ft

Earthquake Activity

City Distance Mag. Time & Date
No recent earthquake activity has been reported nearby.
Minimum magnitude displayed is 2.5.

Coastal Water Temperatures

Place Temperature
No Stations Reporting

Nearby Weather Stations